Terminal Aerodrome Forecast
Issued by NWS

Home | Current Version | Previous Version | Text Only | Print | Product List | Glossary On
Versions: 1 2 3 4 5 6 7 8 9 10 11 12 13
438
FTUS46 KHNX 251156
TAFMER

TAF
KMER 251120Z 2512/2612 VRB04KT 1SM BR BKN002
      TEMPO 2512/2516 1/2SM FG VV002
     FM251800 VRB03KT 2SM BR SCT002
     FM252000 32005KT 4SM SCT200
     FM260700 VRB03KT 2SM BR SCT002=

USA.gov is the U.S. government's official web portal to all federal, state and local government web resources and services.